sensor_id;sensor_type;location;lat;lon;timestamp;temperature;humidity
27823;DHT22;29019;47.630;8.262;2023-06-26T00:01:28;22.60;58.60
27823;DHT22;29019;47.630;8.262;2023-06-26T00:05:32;22.60;58.60
27823;DHT22;29019;47.630;8.262;2023-06-26T00:09:33;22.60;58.60
27823;DHT22;29019;47.630;8.262;2023-06-26T00:13:34;22.60;58.60
27823;DHT22;29019;47.630;8.262;2023-06-26T00:17:34;22.60;58.60
27823;DHT22;29019;47.630;8.262;2023-06-26T00:21:37;22.60;58.60
27823;DHT22;29019;47.630;8.262;2023-06-26T00:25:38;22.60;58.60
27823;DHT22;29019;47.630;8.262;2023-06-26T00:29:38;22.60;58.60
27823;DHT22;29019;47.630;8.262;2023-06-26T00:33:39;22.60;58.60
27823;DHT22;29019;47.630;8.262;2023-06-26T00:37:40;22.60;58.60
27823;DHT22;29019;47.630;8.262;2023-06-26T00:41:41;22.60;58.50
27823;DHT22;29019;47.630;8.262;2023-06-26T00:45:41;22.60;58.60
27823;DHT22;29019;47.630;8.262;2023-06-26T00:49:42;22.60;58.60
27823;DHT22;29019;47.630;8.262;2023-06-26T00:53:43;22.60;58.50
27823;DHT22;29019;47.630;8.262;2023-06-26T00:57:44;22.60;58.50
27823;DHT22;29019;47.630;8.262;2023-06-26T01:01:46;22.60;58.50
27823;DHT22;29019;47.630;8.262;2023-06-26T01:05:47;22.60;58.50
27823;DHT22;29019;47.630;8.262;2023-06-26T01:09:49;22.60;58.50
27823;DHT22;29019;47.630;8.262;2023-06-26T01:13:51;22.60;58.50
27823;DHT22;29019;47.630;8.262;2023-06-26T01:17:52;22.60;58.50
27823;DHT22;29019;47.630;8.262;2023-06-26T01:21:58;22.60;58.60
27823;DHT22;29019;47.630;8.262;2023-06-26T01:26:21;22.60;58.60
27823;DHT22;29019;47.630;8.262;2023-06-26T01:30:23;22.60;58.60
27823;DHT22;29019;47.630;8.262;2023-06-26T01:34:25;22.60;58.60
27823;DHT22;29019;47.630;8.262;2023-06-26T01:38:26;22.60;58.60
27823;DHT22;29019;47.630;8.262;2023-06-26T01:42:27;22.60;58.50
27823;DHT22;29019;47.630;8.262;2023-06-26T01:47:13;22.60;58.50
27823;DHT22;29019;47.630;8.262;2023-06-26T01:51:06;22.60;58.60
27823;DHT22;29019;47.630;8.262;2023-06-26T01:59:21;22.60;58.60
27823;DHT22;29019;47.630;8.262;2023-06-26T02:03:22;22.60;58.50
27823;DHT22;29019;47.630;8.262;2023-06-26T02:07:24;22.60;58.50
27823;DHT22;29019;47.630;8.262;2023-06-26T02:11:25;22.60;58.50
27823;DHT22;29019;47.630;8.262;2023-06-26T02:15:25;22.60;58.50
27823;DHT22;29019;47.630;8.262;2023-06-26T02:19:26;22.60;58.50
27823;DHT22;29019;47.630;8.262;2023-06-26T02:23:27;22.60;58.50
27823;DHT22;29019;47.630;8.262;2023-06-26T02:27:28;22.60;58.50
27823;DHT22;29019;47.630;8.262;2023-06-26T02:31:29;22.60;58.50
27823;DHT22;29019;47.630;8.262;2023-06-26T02:35:29;22.60;58.50
27823;DHT22;29019;47.630;8.262;2023-06-26T02:39:30;22.60;58.50
27823;DHT22;29019;47.630;8.262;2023-06-26T02:43:31;22.50;58.50
27823;DHT22;29019;47.630;8.262;2023-06-26T02:47:31;22.60;58.60
27823;DHT22;29019;47.630;8.262;2023-06-26T02:51:33;22.50;58.50
27823;DHT22;29019;47.630;8.262;2023-06-26T02:55:34;22.60;58.60
27823;DHT22;29019;47.630;8.262;2023-06-26T02:59:35;22.60;58.60
27823;DHT22;29019;47.630;8.262;2023-06-26T03:03:35;22.50;58.50
27823;DHT22;29019;47.630;8.262;2023-06-26T03:07:40;22.60;58.50
27823;DHT22;29019;47.630;8.262;2023-06-26T03:11:41;22.60;58.50
27823;DHT22;29019;47.630;8.262;2023-06-26T03:15:42;22.60;58.50
27823;DHT22;29019;47.630;8.262;2023-06-26T03:19:42;22.60;58.50
27823;DHT22;29019;47.630;8.262;2023-06-26T03:23:43;22.60;58.50
27823;DHT22;29019;47.630;8.262;2023-06-26T03:27:43;22.60;58.50
27823;DHT22;29019;47.630;8.262;2023-06-26T03:31:44;22.60;58.50
27823;DHT22;29019;47.630;8.262;2023-06-26T03:35:45;22.60;58.40
27823;DHT22;29019;47.630;8.262;2023-06-26T03:39:45;22.60;58.40
27823;DHT22;29019;47.630;8.262;2023-06-26T03:43:46;22.60;58.50
27823;DHT22;29019;47.630;8.262;2023-06-26T03:47:47;22.60;58.40
27823;DHT22;29019;47.630;8.262;2023-06-26T03:51:49;22.60;58.40
27823;DHT22;29019;47.630;8.262;2023-06-26T03:55:49;22.60;58.40
27823;DHT22;29019;47.630;8.262;2023-06-26T03:59:51;22.60;58.40
27823;DHT22;29019;47.630;8.262;2023-06-26T04:03:52;22.60;58.40
27823;DHT22;29019;47.630;8.262;2023-06-26T04:07:53;22.60;58.40
27823;DHT22;29019;47.630;8.262;2023-06-26T04:11:54;22.60;58.40
27823;DHT22;29019;47.630;8.262;2023-06-26T04:15:55;22.60;58.40
27823;DHT22;29019;47.630;8.262;2023-06-26T04:19:55;22.60;58.40
27823;DHT22;29019;47.630;8.262;2023-06-26T04:23:56;22.60;58.40
27823;DHT22;29019;47.630;8.262;2023-06-26T04:27:57;22.60;58.40
27823;DHT22;29019;47.630;8.262;2023-06-26T04:31:57;22.60;58.40
27823;DHT22;29019;47.630;8.262;2023-06-26T04:35:58;22.60;58.40
27823;DHT22;29019;47.630;8.262;2023-06-26T04:40:00;22.60;58.40
27823;DHT22;29019;47.630;8.262;2023-06-26T04:44:00;22.60;58.40
27823;DHT22;29019;47.630;8.262;2023-06-26T04:48:02;22.60;58.40
27823;DHT22;29019;47.630;8.262;2023-06-26T04:52:02;22.60;58.50
27823;DHT22;29019;47.630;8.262;2023-06-26T04:56:03;22.60;58.50
27823;DHT22;29019;47.630;8.262;2023-06-26T05:00:04;22.60;58.50
27823;DHT22;29019;47.630;8.262;2023-06-26T05:04:11;22.50;58.50
27823;DHT22;29019;47.630;8.262;2023-06-26T05:08:18;22.60;58.50
27823;DHT22;29019;47.630;8.262;2023-06-26T05:12:19;22.60;58.50
27823;DHT22;29019;47.630;8.262;2023-06-26T05:16:19;22.50;58.50
27823;DHT22;29019;47.630;8.262;2023-06-26T05:20:20;22.50;58.50
27823;DHT22;29019;47.630;8.262;2023-06-26T05:24:21;22.50;58.40
27823;DHT22;29019;47.630;8.262;2023-06-26T05:28:27;22.60;58.50
27823;DHT22;29019;47.630;8.262;2023-06-26T05:32:28;22.50;58.40
27823;DHT22;29019;47.630;8.262;2023-06-26T05:36:32;22.50;58.40
27823;DHT22;29019;47.630;8.262;2023-06-26T05:40:34;22.60;58.50
27823;DHT22;29019;47.630;8.262;2023-06-26T05:44:35;22.50;58.40
27823;DHT22;29019;47.630;8.262;2023-06-26T05:48:35;22.60;58.40
27823;DHT22;29019;47.630;8.262;2023-06-26T05:52:36;22.50;58.40
27823;DHT22;29019;47.630;8.262;2023-06-26T05:56:39;22.50;58.40
27823;DHT22;29019;47.630;8.262;2023-06-26T06:00:41;22.60;58.40
27823;DHT22;29019;47.630;8.262;2023-06-26T06:04:42;22.60;58.40
27823;DHT22;29019;47.630;8.262;2023-06-26T06:08:42;22.60;58.40
27823;DHT22;29019;47.630;8.262;2023-06-26T06:12:43;22.60;58.40
27823;DHT22;29019;47.630;8.262;2023-06-26T06:16:44;22.60;58.40
27823;DHT22;29019;47.630;8.262;2023-06-26T06:20:44;22.50;58.40
27823;DHT22;29019;47.630;8.262;2023-06-26T06:24:45;22.50;58.40
27823;DHT22;29019;47.630;8.262;2023-06-26T06:28:46;22.50;58.40
27823;DHT22;29019;47.630;8.262;2023-06-26T06:32:46;22.50;58.40
27823;DHT22;29019;47.630;8.262;2023-06-26T06:36:50;22.50;58.40
27823;DHT22;29019;47.630;8.262;2023-06-26T06:40:51;22.50;58.40
27823;DHT22;29019;47.630;8.262;2023-06-26T06:44:51;22.50;58.40
27823;DHT22;29019;47.630;8.262;2023-06-26T06:48:53;22.50;58.40
27823;DHT22;29019;47.630;8.262;2023-06-26T06:52:53;22.50;58.50
27823;DHT22;29019;47.630;8.262;2023-06-26T06:56:54;22.50;58.50
27823;DHT22;29019;47.630;8.262;2023-06-26T07:00:54;22.50;58.50
27823;DHT22;29019;47.630;8.262;2023-06-26T07:04:56;22.50;58.50
27823;DHT22;29019;47.630;8.262;2023-06-26T07:08:56;22.50;58.50
27823;DHT22;29019;47.630;8.262;2023-06-26T07:12:57;22.50;58.50
27823;DHT22;29019;47.630;8.262;2023-06-26T07:16:58;22.50;58.50
27823;DHT22;29019;47.630;8.262;2023-06-26T07:20:58;22.50;58.50
27823;DHT22;29019;47.630;8.262;2023-06-26T07:24:59;22.50;58.40
27823;DHT22;29019;47.630;8.262;2023-06-26T07:29:00;22.50;58.40
27823;DHT22;29019;47.630;8.262;2023-06-26T07:33:00;22.50;58.40
27823;DHT22;29019;47.630;8.262;2023-06-26T07:37:01;22.50;58.40
27823;DHT22;29019;47.630;8.262;2023-06-26T07:41:01;22.50;58.40
27823;DHT22;29019;47.630;8.262;2023-06-26T07:45:03;22.50;58.40
27823;DHT22;29019;47.630;8.262;2023-06-26T07:49:11;22.50;58.40
27823;DHT22;29019;47.630;8.262;2023-06-26T07:53:12;22.50;58.40
27823;DHT22;29019;47.630;8.262;2023-06-26T07:57:13;22.50;58.40
27823;DHT22;29019;47.630;8.262;2023-06-26T08:01:13;22.50;58.40
27823;DHT22;29019;47.630;8.262;2023-06-26T08:05:14;22.50;58.40
27823;DHT22;29019;47.630;8.262;2023-06-26T08:09:15;22.50;58.40
27823;DHT22;29019;47.630;8.262;2023-06-26T08:13:16;22.50;58.40
27823;DHT22;29019;47.630;8.262;2023-06-26T08:17:16;22.50;58.40
27823;DHT22;29019;47.630;8.262;2023-06-26T08:21:17;22.50;58.40
27823;DHT22;29019;47.630;8.262;2023-06-26T08:25:18;22.50;58.40
27823;DHT22;29019;47.630;8.262;2023-06-26T08:29:18;22.50;58.50
27823;DHT22;29019;47.630;8.262;2023-06-26T08:33:19;22.50;58.50
27823;DHT22;29019;47.630;8.262;2023-06-26T08:37:20;22.50;58.50
27823;DHT22;29019;47.630;8.262;2023-06-26T08:41:20;22.50;58.40
27823;DHT22;29019;47.630;8.262;2023-06-26T08:45:21;22.50;58.40
27823;DHT22;29019;47.630;8.262;2023-06-26T08:49:37;22.50;58.40
27823;DHT22;29019;47.630;8.262;2023-06-26T08:53:49;22.50;58.40
27823;DHT22;29019;47.630;8.262;2023-06-26T08:57:53;22.50;58.40
27823;DHT22;29019;47.630;8.262;2023-06-26T09:01:54;22.50;58.30
27823;DHT22;29019;47.630;8.262;2023-06-26T09:05:55;22.50;58.40
27823;DHT22;29019;47.630;8.262;2023-06-26T09:09:55;22.60;58.40
27823;DHT22;29019;47.630;8.262;2023-06-26T09:13:56;22.50;58.30
27823;DHT22;29019;47.630;8.262;2023-06-26T09:17:57;22.50;58.30
27823;DHT22;29019;47.630;8.262;2023-06-26T09:21:59;22.50;58.30
27823;DHT22;29019;47.630;8.262;2023-06-26T09:26:01;22.60;58.40
27823;DHT22;29019;47.630;8.262;2023-06-26T09:30:03;22.60;58.40
27823;DHT22;29019;47.630;8.262;2023-06-26T09:34:04;22.60;58.40
27823;DHT22;29019;47.630;8.262;2023-06-26T09:38:05;22.50;58.30
27823;DHT22;29019;47.630;8.262;2023-06-26T09:42:06;22.50;58.30
27823;DHT22;29019;47.630;8.262;2023-06-26T09:46:07;22.50;58.40
27823;DHT22;29019;47.630;8.262;2023-06-26T09:50:21;22.50;58.40
27823;DHT22;29019;47.630;8.262;2023-06-26T09:54:23;22.50;58.40
27823;DHT22;29019;47.630;8.262;2023-06-26T09:58:24;22.50;58.40
27823;DHT22;29019;47.630;8.262;2023-06-26T10:02:26;22.60;58.40
27823;DHT22;29019;47.630;8.262;2023-06-26T10:07:03;22.60;58.40
27823;DHT22;29019;47.630;8.262;2023-06-26T10:11:05;22.50;58.30
27823;DHT22;29019;47.630;8.262;2023-06-26T10:15:08;22.50;58.30
27823;DHT22;29019;47.630;8.262;2023-06-26T10:19:13;22.60;58.40
27823;DHT22;29019;47.630;8.262;2023-06-26T10:23:15;22.50;58.30
27823;DHT22;29019;47.630;8.262;2023-06-26T10:27:23;22.60;58.40
27823;DHT22;29019;47.630;8.262;2023-06-26T10:31:26;22.60;58.30
27823;DHT22;29019;47.630;8.262;2023-06-26T10:35:28;22.50;58.30
27823;DHT22;29019;47.630;8.262;2023-06-26T10:39:50;22.60;58.30
27823;DHT22;29019;47.630;8.262;2023-06-26T10:44:08;22.60;58.40
27823;DHT22;29019;47.630;8.262;2023-06-26T10:48:09;22.60;58.30
27823;DHT22;29019;47.630;8.262;2023-06-26T10:52:09;22.60;58.40
27823;DHT22;29019;47.630;8.262;2023-06-26T10:56:10;22.60;58.30
27823;DHT22;29019;47.630;8.262;2023-06-26T11:00:13;22.60;58.30
27823;DHT22;29019;47.630;8.262;2023-06-26T11:04:14;22.50;58.30
27823;DHT22;29019;47.630;8.262;2023-06-26T11:08:16;22.50;58.30
27823;DHT22;29019;47.630;8.262;2023-06-26T11:12:35;22.60;58.40
27823;DHT22;29019;47.630;8.262;2023-06-26T11:16:42;22.60;58.40
27823;DHT22;29019;47.630;8.262;2023-06-26T11:20:43;22.50;58.30
27823;DHT22;29019;47.630;8.262;2023-06-26T11:24:44;22.60;58.40
27823;DHT22;29019;47.630;8.262;2023-06-26T11:28:49;22.60;58.40
27823;DHT22;29019;47.630;8.262;2023-06-26T11:32:50;22.60;58.30
27823;DHT22;29019;47.630;8.262;2023-06-26T11:36:50;22.60;58.30
27823;DHT22;29019;47.630;8.262;2023-06-26T11:40:51;22.60;58.30
27823;DHT22;29019;47.630;8.262;2023-06-26T11:44:52;22.60;58.30
27823;DHT22;29019;47.630;8.262;2023-06-26T11:48:53;22.60;58.30
27823;DHT22;29019;47.630;8.262;2023-06-26T11:52:58;22.60;58.30
27823;DHT22;29019;47.630;8.262;2023-06-26T11:56:59;22.60;58.30
27823;DHT22;29019;47.630;8.262;2023-06-26T12:01:00;22.60;58.30
27823;DHT22;29019;47.630;8.262;2023-06-26T12:05:00;22.60;58.30
27823;DHT22;29019;47.630;8.262;2023-06-26T12:09:04;22.60;58.30
27823;DHT22;29019;47.630;8.262;2023-06-26T12:13:05;22.60;58.30
27823;DHT22;29019;47.630;8.262;2023-06-26T12:17:10;22.60;58.30
27823;DHT22;29019;47.630;8.262;2023-06-26T12:25:42;22.60;58.30
27823;DHT22;29019;47.630;8.262;2023-06-26T12:29:53;22.60;58.30
27823;DHT22;29019;47.630;8.262;2023-06-26T12:33:54;22.60;58.30
27823;DHT22;29019;47.630;8.262;2023-06-26T12:37:55;22.50;58.30
27823;DHT22;29019;47.630;8.262;2023-06-26T12:41:57;22.60;58.30
27823;DHT22;29019;47.630;8.262;2023-06-26T12:45:59;22.60;58.30
27823;DHT22;29019;47.630;8.262;2023-06-26T12:50:05;22.60;58.30
27823;DHT22;29019;47.630;8.262;2023-06-26T12:54:06;22.60;58.30
27823;DHT22;29019;47.630;8.262;2023-06-26T12:58:06;22.60;58.30
27823;DHT22;29019;47.630;8.262;2023-06-26T13:02:08;22.60;58.30
27823;DHT22;29019;47.630;8.262;2023-06-26T13:06:09;22.60;58.30
27823;DHT22;29019;47.630;8.262;2023-06-26T13:10:10;22.60;58.30
27823;DHT22;29019;47.630;8.262;2023-06-26T13:14:10;22.60;58.30
27823;DHT22;29019;47.630;8.262;2023-06-26T13:18:11;22.60;58.30
27823;DHT22;29019;47.630;8.262;2023-06-26T13:22:11;22.60;58.20
27823;DHT22;29019;47.630;8.262;2023-06-26T13:26:12;22.60;58.30
27823;DHT22;29019;47.630;8.262;2023-06-26T13:30:14;22.60;58.20
27823;DHT22;29019;47.630;8.262;2023-06-26T13:34:22;22.60;58.20
27823;DHT22;29019;47.630;8.262;2023-06-26T13:38:24;22.60;58.20
27823;DHT22;29019;47.630;8.262;2023-06-26T13:42:25;22.60;58.20
27823;DHT22;29019;47.630;8.262;2023-06-26T13:46:25;22.70;58.10
27823;DHT22;29019;47.630;8.262;2023-06-26T13:50:29;22.70;58.70
27823;DHT22;29019;47.630;8.262;2023-06-26T13:54:29;22.60;58.10
27823;DHT22;29019;47.630;8.262;2023-06-26T13:58:30;22.70;58.20
27823;DHT22;29019;47.630;8.262;2023-06-26T14:02:32;22.70;58.10
27823;DHT22;29019;47.630;8.262;2023-06-26T14:06:33;22.70;58.50
27823;DHT22;29019;47.630;8.262;2023-06-26T14:10:34;22.70;58.00
27823;DHT22;29019;47.630;8.262;2023-06-26T14:14:36;22.70;58.40
27823;DHT22;29019;47.630;8.262;2023-06-26T14:18:37;22.70;57.90
27823;DHT22;29019;47.630;8.262;2023-06-26T14:22:39;22.70;57.90
27823;DHT22;29019;47.630;8.262;2023-06-26T14:26:40;22.70;57.90
27823;DHT22;29019;47.630;8.262;2023-06-26T14:30:40;22.70;57.80
27823;DHT22;29019;47.630;8.262;2023-06-26T14:34:41;22.70;57.80
27823;DHT22;29019;47.630;8.262;2023-06-26T14:38:42;22.70;57.80
27823;DHT22;29019;47.630;8.262;2023-06-26T14:42:42;22.70;57.90
27823;DHT22;29019;47.630;8.262;2023-06-26T14:46:43;22.70;57.90
27823;DHT22;29019;47.630;8.262;2023-06-26T14:50:44;22.70;57.90
27823;DHT22;29019;47.630;8.262;2023-06-26T14:54:44;22.70;58.00
27823;DHT22;29019;47.630;8.262;2023-06-26T14:58:45;22.70;58.00
27823;DHT22;29019;47.630;8.262;2023-06-26T15:02:48;22.70;58.00
27823;DHT22;29019;47.630;8.262;2023-06-26T15:06:49;22.70;57.90
27823;DHT22;29019;47.630;8.262;2023-06-26T15:10:49;22.70;58.00
27823;DHT22;29019;47.630;8.262;2023-06-26T15:14:50;22.70;58.00
27823;DHT22;29019;47.630;8.262;2023-06-26T15:18:52;22.70;58.00
27823;DHT22;29019;47.630;8.262;2023-06-26T15:22:54;22.70;58.00
27823;DHT22;29019;47.630;8.262;2023-06-26T15:26:54;22.70;58.00
27823;DHT22;29019;47.630;8.262;2023-06-26T15:30:55;22.70;58.00
27823;DHT22;29019;47.630;8.262;2023-06-26T15:34:56;22.60;58.10
27823;DHT22;29019;47.630;8.262;2023-06-26T15:38:56;22.60;58.10
27823;DHT22;29019;47.630;8.262;2023-06-26T15:42:57;22.60;58.10
27823;DHT22;29019;47.630;8.262;2023-06-26T15:46:59;22.70;58.10
27823;DHT22;29019;47.630;8.262;2023-06-26T15:50:59;22.60;58.10
27823;DHT22;29019;47.630;8.262;2023-06-26T15:55:00;22.60;58.10
27823;DHT22;29019;47.630;8.262;2023-06-26T15:59:01;22.60;58.10
27823;DHT22;29019;47.630;8.262;2023-06-26T16:03:01;22.70;58.20
27823;DHT22;29019;47.630;8.262;2023-06-26T16:07:02;22.60;58.10
27823;DHT22;29019;47.630;8.262;2023-06-26T16:11:03;22.60;58.10
27823;DHT22;29019;47.630;8.262;2023-06-26T16:15:05;22.60;58.10
27823;DHT22;29019;47.630;8.262;2023-06-26T16:19:06;22.70;58.20
27823;DHT22;29019;47.630;8.262;2023-06-26T16:23:08;22.70;58.20
27823;DHT22;29019;47.630;8.262;2023-06-26T16:27:08;22.60;58.10
27823;DHT22;29019;47.630;8.262;2023-06-26T16:31:09;22.60;58.20
27823;DHT22;29019;47.630;8.262;2023-06-26T16:35:10;22.60;58.20
27823;DHT22;29019;47.630;8.262;2023-06-26T16:39:10;22.60;58.20
27823;DHT22;29019;47.630;8.262;2023-06-26T16:43:16;22.60;58.20
27823;DHT22;29019;47.630;8.262;2023-06-26T16:47:17;22.60;58.20
27823;DHT22;29019;47.630;8.262;2023-06-26T16:51:19;22.60;58.20
27823;DHT22;29019;47.630;8.262;2023-06-26T16:55:20;22.60;58.10
27823;DHT22;29019;47.630;8.262;2023-06-26T16:59:20;22.60;58.10
27823;DHT22;29019;47.630;8.262;2023-06-26T17:03:21;22.60;58.10
27823;DHT22;29019;47.630;8.262;2023-06-26T17:07:22;22.60;58.10
27823;DHT22;29019;47.630;8.262;2023-06-26T17:11:22;22.60;58.10
27823;DHT22;29019;47.630;8.262;2023-06-26T17:15:23;22.60;58.10
27823;DHT22;29019;47.630;8.262;2023-06-26T17:19:24;22.60;58.10
27823;DHT22;29019;47.630;8.262;2023-06-26T17:23:24;22.60;58.10
27823;DHT22;29019;47.630;8.262;2023-06-26T17:27:25;22.60;58.10
27823;DHT22;29019;47.630;8.262;2023-06-26T17:31:28;22.60;58.10
27823;DHT22;29019;47.630;8.262;2023-06-26T17:35:31;22.60;58.10
27823;DHT22;29019;47.630;8.262;2023-06-26T17:39:32;22.70;58.20
27823;DHT22;29019;47.630;8.262;2023-06-26T17:43:33;22.60;58.10
27823;DHT22;29019;47.630;8.262;2023-06-26T17:47:34;22.60;58.10
27823;DHT22;29019;47.630;8.262;2023-06-26T17:51:35;22.60;58.20
27823;DHT22;29019;47.630;8.262;2023-06-26T17:55:36;22.60;58.20
27823;DHT22;29019;47.630;8.262;2023-06-26T17:59:36;22.60;58.70
27823;DHT22;29019;47.630;8.262;2023-06-26T18:03:37;22.60;58.20
27823;DHT22;29019;47.630;8.262;2023-06-26T18:07:38;22.60;58.20
27823;DHT22;29019;47.630;8.262;2023-06-26T18:11:39;22.60;58.20
27823;DHT22;29019;47.630;8.262;2023-06-26T18:15:40;22.60;58.20
27823;DHT22;29019;47.630;8.262;2023-06-26T18:19:40;22.60;58.20
27823;DHT22;29019;47.630;8.262;2023-06-26T18:23:41;22.60;58.10
27823;DHT22;29019;47.630;8.262;2023-06-26T18:27:42;22.60;58.20
27823;DHT22;29019;47.630;8.262;2023-06-26T18:31:43;22.60;58.10
27823;DHT22;29019;47.630;8.262;2023-06-26T18:35:44;22.60;58.10
27823;DHT22;29019;47.630;8.262;2023-06-26T18:39:45;22.60;58.10
27823;DHT22;29019;47.630;8.262;2023-06-26T18:43:46;22.60;58.10
27823;DHT22;29019;47.630;8.262;2023-06-26T18:47:49;22.60;58.10
27823;DHT22;29019;47.630;8.262;2023-06-26T18:51:50;22.60;58.10
27823;DHT22;29019;47.630;8.262;2023-06-26T18:55:51;22.60;58.10
27823;DHT22;29019;47.630;8.262;2023-06-26T18:59:52;22.60;58.10
27823;DHT22;29019;47.630;8.262;2023-06-26T19:03:53;22.60;58.10
27823;DHT22;29019;47.630;8.262;2023-06-26T19:07:53;22.60;58.20
27823;DHT22;29019;47.630;8.262;2023-06-26T19:11:54;22.60;58.20
27823;DHT22;29019;47.630;8.262;2023-06-26T19:15:54;22.60;58.20
27823;DHT22;29019;47.630;8.262;2023-06-26T19:19:55;22.60;58.30
27823;DHT22;29019;47.630;8.262;2023-06-26T19:23:56;22.60;58.20
27823;DHT22;29019;47.630;8.262;2023-06-26T19:27:56;22.60;58.20
27823;DHT22;29019;47.630;8.262;2023-06-26T19:31:58;22.60;58.20
27823;DHT22;29019;47.630;8.262;2023-06-26T19:36:00;22.60;58.20
27823;DHT22;29019;47.630;8.262;2023-06-26T19:40:01;22.60;58.20
27823;DHT22;29019;47.630;8.262;2023-06-26T19:44:01;22.60;58.20
27823;DHT22;29019;47.630;8.262;2023-06-26T19:48:02;22.60;58.20
27823;DHT22;29019;47.630;8.262;2023-06-26T19:52:03;22.60;58.20
27823;DHT22;29019;47.630;8.262;2023-06-26T19:56:04;22.60;58.20
27823;DHT22;29019;47.630;8.262;2023-06-26T20:00:05;22.60;58.20
27823;DHT22;29019;47.630;8.262;2023-06-26T20:04:06;22.60;58.20
27823;DHT22;29019;47.630;8.262;2023-06-26T20:08:06;22.60;58.80
27823;DHT22;29019;47.630;8.262;2023-06-26T20:12:07;22.60;58.30
27823;DHT22;29019;47.630;8.262;2023-06-26T20:16:08;22.70;58.10
27823;DHT22;29019;47.630;8.262;2023-06-26T20:20:09;22.70;58.10
27823;DHT22;29019;47.630;8.262;2023-06-26T20:24:10;22.70;58.50
27823;DHT22;29019;47.630;8.262;2023-06-26T20:28:10;22.70;58.50
27823;DHT22;29019;47.630;8.262;2023-06-26T20:32:11;22.80;59.60
27823;DHT22;29019;47.630;8.262;2023-06-26T20:36:12;22.80;61.20
27823;DHT22;29019;47.630;8.262;2023-06-26T20:40:13;22.80;61.10
27823;DHT22;29019;47.630;8.262;2023-06-26T20:44:14;22.80;61.00
27823;DHT22;29019;47.630;8.262;2023-06-26T20:48:15;22.80;60.70
27823;DHT22;29019;47.630;8.262;2023-06-26T20:52:17;22.80;60.50
27823;DHT22;29019;47.630;8.262;2023-06-26T20:56:18;22.80;60.40
27823;DHT22;29019;47.630;8.262;2023-06-26T21:00:21;22.80;60.20
27823;DHT22;29019;47.630;8.262;2023-06-26T21:04:22;22.80;60.10
27823;DHT22;29019;47.630;8.262;2023-06-26T21:08:23;22.80;60.00
27823;DHT22;29019;47.630;8.262;2023-06-26T21:12:23;22.80;59.90
27823;DHT22;29019;47.630;8.262;2023-06-26T21:16:24;22.80;60.00
27823;DHT22;29019;47.630;8.262;2023-06-26T21:20:25;22.80;59.90
27823;DHT22;29019;47.630;8.262;2023-06-26T21:24:25;22.80;59.80
27823;DHT22;29019;47.630;8.262;2023-06-26T21:28:27;22.80;59.80
27823;DHT22;29019;47.630;8.262;2023-06-26T21:32:28;22.80;59.60
27823;DHT22;29019;47.630;8.262;2023-06-26T21:36:29;22.80;59.40
27823;DHT22;29019;47.630;8.262;2023-06-26T21:40:30;22.90;59.80
27823;DHT22;29019;47.630;8.262;2023-06-26T21:44:30;22.90;59.60
27823;DHT22;29019;47.630;8.262;2023-06-26T21:48:34;22.90;59.30
27823;DHT22;29019;47.630;8.262;2023-06-26T21:52:36;23.00;59.30
27823;DHT22;29019;47.630;8.262;2023-06-26T21:56:36;22.90;59.40
27823;DHT22;29019;47.630;8.262;2023-06-26T22:00:37;22.90;58.90
27823;DHT22;29019;47.630;8.262;2023-06-26T22:04:38;23.00;59.00
27823;DHT22;29019;47.630;8.262;2023-06-26T22:08:38;23.00;58.90
27823;DHT22;29019;47.630;8.262;2023-06-26T22:12:39;23.00;59.20
27823;DHT22;29019;47.630;8.262;2023-06-26T22:16:41;23.00;59.10
27823;DHT22;29019;47.630;8.262;2023-06-26T22:20:42;23.00;59.00
27823;DHT22;29019;47.630;8.262;2023-06-26T22:24:42;23.00;59.10
27823;DHT22;29019;47.630;8.262;2023-06-26T22:28:43;23.00;59.00
27823;DHT22;29019;47.630;8.262;2023-06-26T22:32:44;23.00;58.80
27823;DHT22;29019;47.630;8.262;2023-06-26T22:36:45;23.10;58.90
27823;DHT22;29019;47.630;8.262;2023-06-26T22:40:46;23.10;58.70
27823;DHT22;29019;47.630;8.262;2023-06-26T22:44:47;23.10;58.70
27823;DHT22;29019;47.630;8.262;2023-06-26T22:48:48;23.10;58.60
27823;DHT22;29019;47.630;8.262;2023-06-26T22:52:48;23.00;58.60
27823;DHT22;29019;47.630;8.262;2023-06-26T22:56:49;23.00;58.60
27823;DHT22;29019;47.630;8.262;2023-06-26T23:00:49;23.00;59.20
27823;DHT22;29019;47.630;8.262;2023-06-26T23:04:50;23.10;60.50
27823;DHT22;29019;47.630;8.262;2023-06-26T23:08:51;23.10;62.70
27823;DHT22;29019;47.630;8.262;2023-06-26T23:12:51;23.10;61.10
27823;DHT22;29019;47.630;8.262;2023-06-26T23:16:54;23.10;60.10
27823;DHT22;29019;47.630;8.262;2023-06-26T23:21:04;23.10;60.10
27823;DHT22;29019;47.630;8.262;2023-06-26T23:25:05;23.00;59.70
27823;DHT22;29019;47.630;8.262;2023-06-26T23:29:06;23.10;59.70
27823;DHT22;29019;47.630;8.262;2023-06-26T23:33:06;23.10;59.60
27823;DHT22;29019;47.630;8.262;2023-06-26T23:37:08;23.10;59.50
27823;DHT22;29019;47.630;8.262;2023-06-26T23:41:09;23.10;59.60
27823;DHT22;29019;47.630;8.262;2023-06-26T23:45:10;23.10;59.60
27823;DHT22;29019;47.630;8.262;2023-06-26T23:49:10;23.10;59.30
27823;DHT22;29019;47.630;8.262;2023-06-26T23:53:11;23.10;59.40
27823;DHT22;29019;47.630;8.262;2023-06-26T23:57:12;23.10;59.40
